createdAt,value
2022-09-10T00:01:10.381Z,15.10
2022-09-10T00:02:32.518Z,15.20
2022-09-10T00:03:55.982Z,15.20
2022-09-10T00:05:18.228Z,15.20
2022-09-10T00:06:41.055Z,15.30
2022-09-10T00:08:04.355Z,15.30
2022-09-10T00:09:26.541Z,15.30
2022-09-10T00:10:51.737Z,15.30
2022-09-10T00:12:14.916Z,15.30
2022-09-10T00:13:39.177Z,15.30
2022-09-10T00:15:01.487Z,15.30
2022-09-10T00:16:23.790Z,15.30
2022-09-10T00:17:45.872Z,15.30
2022-09-10T00:19:07.948Z,15.30
2022-09-10T00:20:29.943Z,15.30
2022-09-10T00:21:51.996Z,15.20
2022-09-10T00:23:19.089Z,15.20
2022-09-10T00:24:41.138Z,15.20
2022-09-10T00:26:15.719Z,15.20
2022-09-10T00:27:37.709Z,15.10
2022-09-10T00:28:59.912Z,15.10
2022-09-10T00:30:22.324Z,15.00
2022-09-10T00:31:45.120Z,15.00
2022-09-10T00:33:07.153Z,15.00
2022-09-10T00:34:29.146Z,15.00
2022-09-10T00:35:51.363Z,15.00
2022-09-10T00:37:14.467Z,14.90
2022-09-10T00:38:36.494Z,14.90
2022-09-10T00:39:59.203Z,14.90
2022-09-10T00:41:23.365Z,14.90
2022-09-10T00:42:45.359Z,14.80
2022-09-10T00:44:42.648Z,14.80
2022-09-10T00:46:04.820Z,14.80
2022-09-10T00:47:37.597Z,14.70
2022-09-10T00:49:02.952Z,14.70
2022-09-10T00:50:31.592Z,14.70
2022-09-10T00:51:54.045Z,14.70
2022-09-10T00:53:20.043Z,14.70
2022-09-10T00:54:44.676Z,14.70
2022-09-10T00:56:07.615Z,14.60
2022-09-10T00:57:29.734Z,14.70
2022-09-10T00:58:52.711Z,14.60
2022-09-10T01:00:15.495Z,14.60
2022-09-10T01:01:38.838Z,14.60
2022-09-10T01:03:03.068Z,14.60
2022-09-10T01:04:26.630Z,14.50
2022-09-10T01:05:49.756Z,14.50
2022-09-10T01:07:13.522Z,14.50
2022-09-10T01:08:35.531Z,14.50
2022-09-10T01:09:59.922Z,14.50
2022-09-10T01:11:45.667Z,14.50
2022-09-10T01:13:45.397Z,14.50
2022-09-10T01:15:33.329Z,14.50
2022-09-10T01:17:21.773Z,14.60
2022-09-10T01:18:46.457Z,14.60
2022-09-10T01:20:46.961Z,14.60
2022-09-10T01:22:22.301Z,14.60
2022-09-10T01:24:16.713Z,14.60
2022-09-10T01:26:14.178Z,14.60
2022-09-10T01:27:44.168Z,14.60
2022-09-10T01:29:18.502Z,14.60
2022-09-10T01:30:45.486Z,14.60
2022-09-10T01:32:27.338Z,14.50
2022-09-10T01:34:18.751Z,14.50
2022-09-10T01:35:49.364Z,14.40
2022-09-10T01:37:21.493Z,14.50
2022-09-10T01:38:43.591Z,14.40
2022-09-10T01:40:06.853Z,14.40
2022-09-10T01:41:28.972Z,14.40
2022-09-10T01:42:50.982Z,14.40
2022-09-10T01:44:45.696Z,14.40
2022-09-10T01:46:20.617Z,14.40
2022-09-10T01:48:10.117Z,14.40
2022-09-10T01:50:08.249Z,14.40
2022-09-10T01:51:44.863Z,14.30
2022-09-10T01:53:32.039Z,14.30
2022-09-10T01:55:14.878Z,14.30
2022-09-10T01:56:46.233Z,14.30
2022-09-10T01:58:17.026Z,14.30
2022-09-10T01:59:47.808Z,14.30
2022-09-10T02:01:14.942Z,14.30
2022-09-10T02:03:03.161Z,14.20
2022-09-10T02:04:25.916Z,14.20
2022-09-10T02:05:50.527Z,14.30
2022-09-10T02:07:14.426Z,14.20
2022-09-10T02:08:40.038Z,14.20
2022-09-10T02:10:04.595Z,14.20
2022-09-10T02:11:27.754Z,14.20
2022-09-10T02:12:50.040Z,14.20
2022-09-10T02:14:14.150Z,14.20
2022-09-10T02:15:37.904Z,14.20
2022-09-10T02:17:01.120Z,14.20
2022-09-10T02:18:25.002Z,14.20
2022-09-10T02:19:51.520Z,14.20
2022-09-10T02:21:15.350Z,14.20
2022-09-10T02:22:40.632Z,14.10
2022-09-10T02:24:06.764Z,14.20
2022-09-10T02:25:33.301Z,14.10
2022-09-10T02:26:55.545Z,14.10
2022-09-10T02:28:17.732Z,14.10
2022-09-10T02:29:40.301Z,14.10
2022-09-10T02:31:02.493Z,14.10
2022-09-10T02:32:24.490Z,14.10
2022-09-10T02:33:46.483Z,14.10
2022-09-10T02:35:08.927Z,14.10
2022-09-10T02:36:31.857Z,14.10
2022-09-10T02:37:53.974Z,14.20
2022-09-10T02:39:15.967Z,14.20
2022-09-10T02:40:39.247Z,14.20
2022-09-10T02:42:01.912Z,14.30
2022-09-10T02:43:23.995Z,14.30
2022-09-10T02:44:47.849Z,14.30
2022-09-10T02:46:10.203Z,14.30
2022-09-10T02:47:32.187Z,14.30
2022-09-10T02:48:55.140Z,14.40
2022-09-10T02:50:17.492Z,14.40
2022-09-10T02:51:41.736Z,14.40
2022-09-10T02:53:03.727Z,14.40
2022-09-10T02:54:26.314Z,14.30
2022-09-10T02:55:48.624Z,14.30
2022-09-10T02:57:12.178Z,14.30
2022-09-10T02:58:34.679Z,14.30
2022-09-10T02:59:56.907Z,14.20
2022-09-10T03:01:21.355Z,14.20
2022-09-10T03:02:43.412Z,14.20
2022-09-10T03:04:05.807Z,14.10
2022-09-10T03:05:27.866Z,14.10
2022-09-10T03:06:49.900Z,14.10
2022-09-10T03:08:11.954Z,14.10
2022-09-10T03:09:35.609Z,14.10
2022-09-10T03:10:59.407Z,14.00
2022-09-10T03:12:21.799Z,14.00
2022-09-10T03:13:45.757Z,14.00
2022-09-10T03:15:08.374Z,14.00
2022-09-10T03:16:30.424Z,14.00
2022-09-10T03:17:52.492Z,14.00
2022-09-10T03:19:14.918Z,13.90
2022-09-10T03:20:36.938Z,13.90
2022-09-10T03:21:58.921Z,13.90
2022-09-10T03:23:20.873Z,13.90
2022-09-10T03:24:43.547Z,13.90
2022-09-10T03:26:06.105Z,13.90
2022-09-10T03:27:28.095Z,13.80
2022-09-10T03:28:50.147Z,13.80
2022-09-10T03:30:12.645Z,13.80
2022-09-10T03:31:35.526Z,13.80
2022-09-10T03:32:57.766Z,13.80
2022-09-10T03:34:20.434Z,13.80
2022-09-10T03:35:42.387Z,13.80
2022-09-10T03:37:04.521Z,13.80
2022-09-10T03:38:27.663Z,13.80
2022-09-10T03:39:49.749Z,13.80
2022-09-10T03:41:12.022Z,13.80
2022-09-10T03:42:34.052Z,13.70
2022-09-10T03:43:57.379Z,13.70
2022-09-10T03:45:19.353Z,13.70
2022-09-10T03:46:41.314Z,13.70
2022-09-10T03:48:03.876Z,13.70
2022-09-10T03:49:25.956Z,13.70
2022-09-10T03:50:50.733Z,13.70
2022-09-10T03:52:12.884Z,13.70
2022-09-10T03:53:34.928Z,13.60
2022-09-10T03:54:57.227Z,13.60
2022-09-10T03:56:20.549Z,13.60
2022-09-10T03:57:42.645Z,13.60
2022-09-10T03:59:04.659Z,13.60
2022-09-10T04:00:27.067Z,13.50
2022-09-10T04:01:50.714Z,13.50
2022-09-10T04:03:14.314Z,13.50
2022-09-10T04:04:37.533Z,13.50
2022-09-10T04:05:59.588Z,13.50
2022-09-10T04:07:21.660Z,13.50
2022-09-10T04:08:44.003Z,13.50
2022-09-10T04:10:07.051Z,13.40
2022-09-10T04:11:29.121Z,13.40
2022-09-10T04:12:53.399Z,13.40
2022-09-10T04:14:15.652Z,13.40
2022-09-10T04:15:37.689Z,13.40
2022-09-10T04:16:59.759Z,13.40
2022-09-10T04:18:21.782Z,13.40
2022-09-10T04:19:43.865Z,13.40
2022-09-10T04:21:06.017Z,13.40
2022-09-10T04:22:28.224Z,13.40
2022-09-10T04:23:54.496Z,13.40
2022-09-10T04:25:16.961Z,13.40
2022-09-10T04:26:39.505Z,13.40
2022-09-10T04:28:01.895Z,13.30
2022-09-10T04:29:23.875Z,13.40
2022-09-10T04:30:47.047Z,13.30
2022-09-10T04:32:09.411Z,13.40
2022-09-10T04:33:33.170Z,13.40
2022-09-10T04:34:55.135Z,13.40
2022-09-10T04:36:17.209Z,13.40
2022-09-10T04:37:39.170Z,13.40
2022-09-10T04:39:01.143Z,13.40
2022-09-10T04:40:23.134Z,13.40
2022-09-10T04:41:45.116Z,13.40
2022-09-10T04:43:07.338Z,13.40
2022-09-10T04:44:29.599Z,13.40
2022-09-10T04:45:52.688Z,13.40
2022-09-10T04:47:15.010Z,13.40
2022-09-10T04:48:37.086Z,13.40
2022-09-10T04:49:59.228Z,13.40
2022-09-10T04:51:21.228Z,13.40
2022-09-10T04:52:43.357Z,13.40
2022-09-10T04:54:05.373Z,13.40
2022-09-10T04:55:27.676Z,13.50
2022-09-10T04:56:50.434Z,13.50
2022-09-10T04:58:13.396Z,13.50
2022-09-10T04:59:35.501Z,13.50
2022-09-10T05:00:57.605Z,13.50
2022-09-10T05:02:20.416Z,13.50
2022-09-10T05:03:42.434Z,13.50
2022-09-10T05:05:04.792Z,13.50
2022-09-10T05:06:26.927Z,13.50
2022-09-10T05:07:49.336Z,13.50
2022-09-10T05:09:12.091Z,13.60
2022-09-10T05:10:36.054Z,13.60
2022-09-10T05:11:58.486Z,13.60
2022-09-10T05:13:20.474Z,13.70
2022-09-10T05:14:42.507Z,13.70
2022-09-10T05:16:04.657Z,13.80
2022-09-10T05:17:26.734Z,14.00
2022-09-10T05:18:48.764Z,14.20
2022-09-10T05:20:11.411Z,14.40
2022-09-10T05:21:33.679Z,14.70
2022-09-10T05:22:56.148Z,14.90
2022-09-10T05:24:18.312Z,15.00
2022-09-10T05:25:42.952Z,15.30
2022-09-10T05:27:05.065Z,15.50
2022-09-10T05:28:27.080Z,15.60
2022-09-10T05:29:49.084Z,15.70
2022-09-10T05:31:11.147Z,15.80
2022-09-10T05:32:33.149Z,15.90
2022-09-10T05:33:55.608Z,16.00
2022-09-10T05:35:17.592Z,16.00
2022-09-10T05:36:41.448Z,16.20
2022-09-10T05:38:03.446Z,16.30
2022-09-10T05:39:25.437Z,16.40
2022-09-10T05:40:48.145Z,16.50
2022-09-10T05:42:10.250Z,16.60
2022-09-10T05:43:32.768Z,16.70
2022-09-10T05:44:54.726Z,16.70
2022-09-10T05:46:17.136Z,16.80
2022-09-10T05:47:39.148Z,16.80
2022-09-10T05:49:01.134Z,16.80
2022-09-10T05:50:23.147Z,16.80
2022-09-10T05:51:45.214Z,16.80
2022-09-10T05:53:07.207Z,16.70
2022-09-10T05:54:29.194Z,16.70
2022-09-10T05:55:51.188Z,16.70
2022-09-10T05:57:13.176Z,16.70
2022-09-10T05:58:35.217Z,16.70
2022-09-10T05:59:57.255Z,16.60
2022-09-10T06:01:19.468Z,16.60
2022-09-10T06:02:42.000Z,16.60
2022-09-10T06:04:04.302Z,16.60
2022-09-10T06:05:26.410Z,16.60
2022-09-10T06:06:48.371Z,16.60
2022-09-10T06:08:10.380Z,16.60
2022-09-10T06:09:32.686Z,16.50
2022-09-10T06:11:00.269Z,16.50
2022-09-10T06:12:22.264Z,16.50
2022-09-10T06:13:44.410Z,16.40
2022-09-10T06:15:07.531Z,16.40
2022-09-10T06:16:29.536Z,16.40
2022-09-10T06:17:55.793Z,16.50
2022-09-10T06:19:17.816Z,16.50
2022-09-10T06:20:39.806Z,16.50
2022-09-10T06:22:01.786Z,16.60
2022-09-10T06:23:23.752Z,16.60
2022-09-10T06:24:49.178Z,16.60
2022-09-10T06:26:13.777Z,16.60
2022-09-10T06:27:35.759Z,16.70
2022-09-10T06:28:57.879Z,16.70
2022-09-10T06:30:20.792Z,16.70
2022-09-10T06:31:42.884Z,16.70
2022-09-10T06:33:05.013Z,16.80
2022-09-10T06:34:27.084Z,16.80
2022-09-10T06:35:58.584Z,16.80
2022-09-10T06:37:21.540Z,16.90
2022-09-10T06:38:45.132Z,16.90
2022-09-10T06:40:07.594Z,17.00
2022-09-10T06:41:31.155Z,17.10
2022-09-10T06:42:54.110Z,17.10
2022-09-10T06:44:16.256Z,17.20
2022-09-10T06:45:40.126Z,17.20
2022-09-10T06:47:42.706Z,17.20
2022-09-10T06:48:48.390Z,17.30
2022-09-10T06:50:10.536Z,17.40
2022-09-10T06:51:33.942Z,17.40
2022-09-10T06:52:56.994Z,17.50
2022-09-10T06:54:19.176Z,17.50
2022-09-10T06:55:41.169Z,17.60
2022-09-10T06:57:05.077Z,17.60
2022-09-10T06:58:28.439Z,17.70
2022-09-10T06:59:50.430Z,17.70
2022-09-10T07:01:12.359Z,17.80
2022-09-10T07:02:34.343Z,17.80
2022-09-10T07:03:58.463Z,17.80
2022-09-10T07:05:20.465Z,17.90
2022-09-10T07:06:42.749Z,17.90
2022-09-10T07:08:05.476Z,18.00
2022-09-10T07:09:27.630Z,18.00
2022-09-10T07:10:49.726Z,18.00
2022-09-10T07:12:11.772Z,18.10
2022-09-10T07:13:35.426Z,18.10
2022-09-10T07:14:57.418Z,18.20
2022-09-10T07:16:25.794Z,18.30
2022-09-10T07:17:47.900Z,18.40
2022-09-10T07:19:11.239Z,18.40
2022-09-10T07:20:33.229Z,18.40
2022-09-10T07:21:55.268Z,18.40
2022-09-10T07:23:20.171Z,18.40
2022-09-10T07:24:42.357Z,18.50
2022-09-10T07:26:10.539Z,18.50
2022-09-10T07:27:33.505Z,18.60
2022-09-10T07:28:56.933Z,18.60
2022-09-10T07:30:19.547Z,18.70
2022-09-10T07:31:41.692Z,18.70
2022-09-10T07:33:03.781Z,18.70
2022-09-10T07:34:25.846Z,18.70
2022-09-10T07:35:47.875Z,18.70
2022-09-10T07:37:09.926Z,18.80
2022-09-10T07:38:32.763Z,18.80
2022-09-10T07:39:54.812Z,18.80
2022-09-10T07:41:17.054Z,18.80
2022-09-10T07:42:39.217Z,18.80
2022-09-10T07:44:01.283Z,18.90
2022-09-10T07:45:23.304Z,18.90
2022-09-10T07:46:46.435Z,18.90
2022-09-10T07:48:08.445Z,18.90
2022-09-10T07:49:31.528Z,18.90
2022-09-10T07:51:01.045Z,18.90
2022-09-10T07:52:23.040Z,18.80
2022-09-10T07:53:50.595Z,18.80
2022-09-10T07:55:13.939Z,18.80
2022-09-10T07:56:36.415Z,18.90
2022-09-10T07:58:00.103Z,19.00
2022-09-10T07:59:22.300Z,19.10
2022-09-10T08:00:44.276Z,19.20
2022-09-10T08:02:06.503Z,19.30
2022-09-10T08:03:31.975Z,19.50
2022-09-10T08:04:54.102Z,19.50
2022-09-10T08:06:16.656Z,19.60
2022-09-10T08:07:39.393Z,19.60
2022-09-10T08:09:04.134Z,19.70
2022-09-10T08:10:26.724Z,19.70
2022-09-10T08:11:48.724Z,19.70
2022-09-10T08:13:10.702Z,19.70
2022-09-10T08:14:32.705Z,19.80
2022-09-10T08:15:57.760Z,19.80
2022-09-10T08:17:19.868Z,19.80
2022-09-10T08:18:43.582Z,19.80
2022-09-10T08:20:08.203Z,19.70
2022-09-10T08:21:30.214Z,19.70
2022-09-10T08:22:52.938Z,19.70
2022-09-10T08:24:14.969Z,19.70
2022-09-10T08:25:38.004Z,19.70
2022-09-10T08:26:59.969Z,19.70
2022-09-10T08:28:25.725Z,19.60
2022-09-10T08:29:47.778Z,19.60
2022-09-10T08:31:12.332Z,19.70
2022-09-10T08:32:36.018Z,19.70
2022-09-10T08:33:58.050Z,19.70
2022-09-10T08:35:20.876Z,19.80
2022-09-10T08:36:42.835Z,19.90
2022-09-10T08:38:04.942Z,20.00
2022-09-10T08:39:27.402Z,20.10
2022-09-10T08:40:49.548Z,20.20
2022-09-10T08:42:42.904Z,20.20
2022-09-10T08:44:27.881Z,20.20
2022-09-10T08:45:51.609Z,20.40
2022-09-10T08:47:32.211Z,20.40
2022-09-10T08:49:11.518Z,20.50
2022-09-10T08:50:49.319Z,20.50
2022-09-10T08:52:35.496Z,20.50
2022-09-10T08:54:02.912Z,20.40
2022-09-10T08:55:30.489Z,20.40
2022-09-10T08:56:55.732Z,20.40
2022-09-10T08:58:25.204Z,20.50
2022-09-10T08:59:50.093Z,20.60
2022-09-10T09:01:42.189Z,20.70
2022-09-10T09:03:12.763Z,20.80
2022-09-10T09:04:44.831Z,20.80
2022-09-10T09:06:24.997Z,20.90
2022-09-10T09:07:48.338Z,21.00
2022-09-10T09:09:15.684Z,21.10
2022-09-10T09:10:52.443Z,21.10
2022-09-10T09:12:32.712Z,21.20
2022-09-10T09:13:57.469Z,21.20
2022-09-10T09:15:47.632Z,21.30
2022-09-10T09:17:12.379Z,21.40
2022-09-10T09:18:44.025Z,21.60
2022-09-10T09:20:18.266Z,21.70
2022-09-10T09:21:54.058Z,21.60
2022-09-10T09:23:23.872Z,21.70
2022-09-10T09:25:09.874Z,21.70
2022-09-10T09:26:38.040Z,21.80
2022-09-10T09:28:00.522Z,21.70
2022-09-10T09:29:45.800Z,21.60
2022-09-10T09:31:24.767Z,21.60
2022-09-10T09:32:47.688Z,21.60
2022-09-10T09:34:35.807Z,21.60
2022-09-10T09:36:03.117Z,21.70
2022-09-10T09:37:29.856Z,21.60
2022-09-10T09:38:52.589Z,21.70
2022-09-10T09:40:31.338Z,21.80
2022-09-10T09:42:12.433Z,21.80
2022-09-10T09:43:40.795Z,21.90
2022-09-10T09:45:35.556Z,21.90
2022-09-10T09:46:57.644Z,21.90
2022-09-10T09:48:22.079Z,21.90
2022-09-10T09:49:44.161Z,21.90
2022-09-10T09:51:11.600Z,21.90
2022-09-10T09:52:35.054Z,22.00
2022-09-10T09:54:36.529Z,22.00
2022-09-10T09:55:47.176Z,21.90
2022-09-10T09:57:16.239Z,21.90
2022-09-10T09:58:40.252Z,21.90
2022-09-10T10:00:33.250Z,21.90
2022-09-10T10:02:05.295Z,21.90
2022-09-10T10:03:29.076Z,21.80
2022-09-10T10:05:22.774Z,21.90
2022-09-10T10:06:55.386Z,21.80
2022-09-10T10:08:31.183Z,22.00
2022-09-10T10:09:53.487Z,22.10
2022-09-10T10:11:20.387Z,22.20
2022-09-10T10:12:49.636Z,22.30
2022-09-10T10:14:20.244Z,22.20
2022-09-10T10:15:42.374Z,22.20
2022-09-10T10:17:27.214Z,22.30
2022-09-10T10:18:50.627Z,22.30
2022-09-10T10:20:16.273Z,22.20
2022-09-10T10:21:38.270Z,22.20
2022-09-10T10:23:28.081Z,22.30
2022-09-10T10:24:54.077Z,22.40
2022-09-10T10:26:21.211Z,22.50
2022-09-10T10:27:45.251Z,22.60
2022-09-10T10:29:21.484Z,22.70
2022-09-10T10:30:44.685Z,22.70
2022-09-10T10:32:16.930Z,22.70
2022-09-10T10:33:49.717Z,22.60
2022-09-10T10:35:32.872Z,22.60
2022-09-10T10:37:13.375Z,22.60
2022-09-10T10:38:58.697Z,22.50
2022-09-10T10:40:26.860Z,22.40
2022-09-10T10:42:06.058Z,22.50
2022-09-10T10:43:49.117Z,22.70
2022-09-10T10:45:28.594Z,22.60
2022-09-10T10:47:28.814Z,22.40
2022-09-10T10:49:11.031Z,22.30
2022-09-10T10:50:39.417Z,22.40
2022-09-10T10:52:36.215Z,22.40
2022-09-10T10:54:25.918Z,22.30
2022-09-10T10:56:18.156Z,22.20
2022-09-10T10:57:58.350Z,22.10
2022-09-10T10:59:41.957Z,22.00
2022-09-10T11:01:13.892Z,21.90
2022-09-10T11:02:53.028Z,21.90
2022-09-10T11:04:27.899Z,21.90
2022-09-10T11:06:11.617Z,21.90
2022-09-10T11:07:42.057Z,22.00
2022-09-10T11:09:21.741Z,22.00
2022-09-10T11:10:54.542Z,22.00
2022-09-10T11:12:32.791Z,22.10
2022-09-10T11:14:19.140Z,22.20
2022-09-10T11:15:47.531Z,22.40
2022-09-10T11:17:15.274Z,22.60
2022-09-10T11:19:02.592Z,22.80
2022-09-10T11:20:42.421Z,22.90
2022-09-10T11:22:13.477Z,22.90
2022-09-10T11:23:45.145Z,22.90
2022-09-10T11:25:39.552Z,22.90
2022-09-10T11:27:15.404Z,22.90
2022-09-10T11:28:52.283Z,23.00
2022-09-10T11:30:16.471Z,23.00
2022-09-10T11:31:44.771Z,23.10
2022-09-10T11:33:29.041Z,23.10
2022-09-10T11:35:07.093Z,23.30
2022-09-10T11:36:52.373Z,23.40
2022-09-10T11:38:32.634Z,23.60
2022-09-10T11:39:59.274Z,23.60
2022-09-10T11:41:26.547Z,23.60
2022-09-10T11:42:56.274Z,23.50
2022-09-10T11:45:00.279Z,23.40
2022-09-10T11:46:34.995Z,23.10
2022-09-10T11:48:22.703Z,22.90
2022-09-10T11:49:58.254Z,22.60
2022-09-10T11:51:37.115Z,22.40
2022-09-10T11:53:00.353Z,22.30
2022-09-10T11:54:33.635Z,22.20
2022-09-10T11:56:19.759Z,22.10
2022-09-10T11:57:55.905Z,21.90
2022-09-10T11:59:48.183Z,21.80
2022-09-10T12:01:31.124Z,21.50
2022-09-10T12:03:11.866Z,21.40
2022-09-10T12:04:54.819Z,21.20
2022-09-10T12:06:26.636Z,21.30
2022-09-10T12:07:54.434Z,21.50
2022-09-10T12:09:34.710Z,21.70
2022-09-10T12:11:08.210Z,21.90
2022-09-10T12:12:43.720Z,22.00
2022-09-10T12:14:07.593Z,22.10
2022-09-10T12:15:37.762Z,21.90
2022-09-10T12:17:03.924Z,21.80
2022-09-10T12:18:42.849Z,21.70
2022-09-10T12:20:06.899Z,21.50
2022-09-10T12:21:32.613Z,21.40
2022-09-10T12:22:56.294Z,21.20
2022-09-10T12:24:27.428Z,21.10
2022-09-10T12:26:03.446Z,20.90
2022-09-10T12:27:45.237Z,20.80
2022-09-10T12:29:33.308Z,20.90
2022-09-10T12:31:01.207Z,21.10
2022-09-10T12:32:23.267Z,21.20
2022-09-10T12:33:45.217Z,21.30
2022-09-10T12:35:35.440Z,21.40
2022-09-10T12:37:00.488Z,21.50
2022-09-10T12:38:59.819Z,21.60
2022-09-10T12:40:25.384Z,21.70
2022-09-10T12:41:47.351Z,21.90
2022-09-10T12:43:44.926Z,22.00
2022-09-10T12:45:09.111Z,22.10
2022-09-10T12:46:31.787Z,22.00
2022-09-10T12:47:54.001Z,22.10
2022-09-10T12:49:16.928Z,22.30
2022-09-10T12:50:46.201Z,22.30
2022-09-10T12:52:13.624Z,22.20
2022-09-10T12:54:02.294Z,22.10
2022-09-10T12:55:48.791Z,21.70
2022-09-10T12:57:43.620Z,21.60
2022-09-10T12:59:46.635Z,21.70
2022-09-10T13:01:23.804Z,21.90
2022-09-10T13:02:58.750Z,22.00
2022-09-10T13:04:35.694Z,22.10
2022-09-10T13:06:04.360Z,22.00
2022-09-10T13:07:41.481Z,21.90
2022-09-10T13:09:16.069Z,21.70
2022-09-10T13:10:40.615Z,21.60
2022-09-10T13:12:17.549Z,21.60
2022-09-10T13:14:02.085Z,21.50
2022-09-10T13:15:27.418Z,21.50
2022-09-10T13:16:49.711Z,21.40
2022-09-10T13:18:32.556Z,21.30
2022-09-10T13:19:54.582Z,21.30
2022-09-10T13:21:25.647Z,21.30
2022-09-10T13:23:04.086Z,21.20
2022-09-10T13:24:36.005Z,21.30
2022-09-10T13:26:37.374Z,21.40
2022-09-10T13:27:59.692Z,21.40
2022-09-10T13:29:30.212Z,21.30
2022-09-10T13:31:10.957Z,21.30
2022-09-10T13:32:40.832Z,21.30
2022-09-10T13:34:11.958Z,21.30
2022-09-10T13:36:08.883Z,21.20
2022-09-10T13:37:33.874Z,21.00
2022-09-10T13:39:07.766Z,21.00
2022-09-10T13:41:03.504Z,21.10
2022-09-10T13:42:46.983Z,21.30
2022-09-10T13:44:25.600Z,21.40
2022-09-10T13:45:55.202Z,21.50
2022-09-10T13:47:22.653Z,21.60
2022-09-10T13:48:59.989Z,21.50
2022-09-10T13:50:27.836Z,21.40
2022-09-10T13:51:53.080Z,21.30
2022-09-10T13:53:17.351Z,21.30
2022-09-10T13:54:49.499Z,21.30
2022-09-10T13:56:21.382Z,21.30
2022-09-10T13:57:47.587Z,21.40
2022-09-10T13:59:23.460Z,21.50
2022-09-10T14:00:53.045Z,21.50
2022-09-10T14:02:16.105Z,21.40
2022-09-10T14:04:53.855Z,21.50
2022-09-10T14:06:23.932Z,21.50
2022-09-10T14:07:46.421Z,21.40
2022-09-10T14:09:10.107Z,21.40
2022-09-10T14:10:35.605Z,21.30
2022-09-10T14:11:59.758Z,21.20
2022-09-10T14:13:28.307Z,21.30
2022-09-10T14:14:55.343Z,21.20
2022-09-10T14:16:25.299Z,21.10
2022-09-10T14:17:57.467Z,21.00
2022-09-10T14:19:22.214Z,20.80
2022-09-10T14:20:44.434Z,20.70
2022-09-10T14:22:10.073Z,20.70
2022-09-10T14:23:32.573Z,20.70
2022-09-10T14:25:00.650Z,20.70
2022-09-10T14:26:33.638Z,20.80
2022-09-10T14:28:19.687Z,20.80
2022-09-10T14:29:42.447Z,20.70
2022-09-10T14:31:21.847Z,20.70
2022-09-10T14:32:46.116Z,20.70
2022-09-10T14:34:24.785Z,20.60
2022-09-10T14:35:51.454Z,20.40
2022-09-10T14:37:29.715Z,20.40
2022-09-10T14:39:02.143Z,20.30
2022-09-10T14:40:24.214Z,20.30
2022-09-10T14:41:47.350Z,20.20
2022-09-10T14:43:28.039Z,20.20
2022-09-10T14:44:50.065Z,20.10
2022-09-10T14:46:33.505Z,20.10
2022-09-10T14:47:55.487Z,20.10
2022-09-10T14:49:25.022Z,20.10
2022-09-10T14:50:48.341Z,20.10
2022-09-10T14:52:11.751Z,20.10
2022-09-10T14:53:33.739Z,20.00
2022-09-10T14:55:17.120Z,20.00
2022-09-10T14:56:42.259Z,19.80
2022-09-10T14:58:04.967Z,19.80
2022-09-10T14:59:33.022Z,19.70
2022-09-10T15:00:55.193Z,19.50
2022-09-10T15:02:24.332Z,19.30
2022-09-10T15:03:46.408Z,19.30
2022-09-10T15:05:17.545Z,19.30
2022-09-10T15:06:40.602Z,19.30
2022-09-10T15:08:02.812Z,19.30
2022-09-10T15:09:26.581Z,19.30
2022-09-10T15:10:50.005Z,19.30
2022-09-10T15:12:15.338Z,19.30
2022-09-10T15:13:41.937Z,19.30
2022-09-10T15:15:04.385Z,19.10
2022-09-10T15:16:27.573Z,19.10
2022-09-10T15:17:49.611Z,19.10
2022-09-10T15:19:11.900Z,19.20
2022-09-10T15:20:33.917Z,19.20
2022-09-10T15:21:57.255Z,19.20
2022-09-10T15:23:21.681Z,19.30
2022-09-10T15:25:08.088Z,19.30
2022-09-10T15:26:26.308Z,19.20
2022-09-10T15:27:48.269Z,19.10
2022-09-10T15:29:11.039Z,19.00
2022-09-10T15:30:35.778Z,18.90
2022-09-10T15:31:59.509Z,18.80
2022-09-10T15:33:21.496Z,18.70
2022-09-10T15:34:43.808Z,18.60
2022-09-10T15:36:06.321Z,18.40
2022-09-10T15:37:28.305Z,18.30
2022-09-10T15:38:51.274Z,18.20
2022-09-10T15:40:13.421Z,18.10
2022-09-10T15:41:35.500Z,18.20
2022-09-10T15:42:57.793Z,18.20
2022-09-10T15:44:20.075Z,18.20
2022-09-10T15:45:42.169Z,18.10
2022-09-10T15:47:04.444Z,18.10
2022-09-10T15:48:26.544Z,18.00
2022-09-10T15:49:48.719Z,17.90
2022-09-10T15:51:16.201Z,17.90
2022-09-10T15:52:38.725Z,17.80
2022-09-10T15:54:04.890Z,17.80
2022-09-10T15:55:27.680Z,17.70
2022-09-10T15:56:49.682Z,17.70
2022-09-10T15:58:12.508Z,17.70
2022-09-10T15:59:34.500Z,17.70
2022-09-10T16:01:05.342Z,17.70
2022-09-10T16:02:27.818Z,17.70
2022-09-10T16:03:52.727Z,17.60
2022-09-10T16:05:16.079Z,17.60
2022-09-10T16:06:40.209Z,17.50
2022-09-10T16:08:02.441Z,17.50
2022-09-10T16:09:24.506Z,17.40
2022-09-10T16:10:46.534Z,17.40
2022-09-10T16:12:08.524Z,17.30
2022-09-10T16:13:30.935Z,17.30
2022-09-10T16:14:53.466Z,17.20
2022-09-10T16:16:21.921Z,17.20
2022-09-10T16:17:44.093Z,17.10
2022-09-10T16:19:06.137Z,17.10
2022-09-10T16:20:28.138Z,17.10
2022-09-10T16:21:50.317Z,17.10
2022-09-10T16:23:12.569Z,17.00
2022-09-10T16:24:34.654Z,17.00
2022-09-10T16:25:56.631Z,17.00
2022-09-10T16:27:19.226Z,17.00
2022-09-10T16:28:54.612Z,17.00
2022-09-10T16:30:16.623Z,17.00
2022-09-10T16:31:41.884Z,17.00
2022-09-10T16:33:03.905Z,17.00
2022-09-10T16:34:26.010Z,17.00
2022-09-10T16:35:48.045Z,17.00
2022-09-10T16:37:10.070Z,17.00
2022-09-10T16:38:32.337Z,17.00
2022-09-10T16:39:54.782Z,17.00
2022-09-10T16:41:17.613Z,16.90
2022-09-10T16:42:39.629Z,17.00
2022-09-10T16:44:01.838Z,17.00
2022-09-10T16:45:24.182Z,17.00
2022-09-10T16:46:47.191Z,17.00
2022-09-10T16:48:09.466Z,16.90
2022-09-10T16:49:32.529Z,16.90
2022-09-10T16:51:02.133Z,16.90
2022-09-10T16:52:24.521Z,17.00
2022-09-10T16:53:52.515Z,17.00
2022-09-10T16:55:15.241Z,16.90
2022-09-10T16:56:40.223Z,17.00
2022-09-10T16:58:02.549Z,17.00
2022-09-10T16:59:25.732Z,16.90
2022-09-10T17:00:49.752Z,16.90
2022-09-10T17:02:12.116Z,16.90
2022-09-10T17:03:34.801Z,16.90
2022-09-10T17:04:56.811Z,16.90
2022-09-10T17:06:21.842Z,16.90
2022-09-10T17:07:43.816Z,16.90
2022-09-10T17:09:05.799Z,16.90
2022-09-10T17:10:27.881Z,16.80
2022-09-10T17:11:51.077Z,16.80
2022-09-10T17:13:13.184Z,16.80
2022-09-10T17:14:35.151Z,16.80
2022-09-10T17:16:28.020Z,16.80
2022-09-10T17:17:50.044Z,16.80
2022-09-10T17:19:21.196Z,16.80
2022-09-10T17:20:43.675Z,16.80
2022-09-10T17:22:05.885Z,16.70
2022-09-10T17:23:27.871Z,16.80
2022-09-10T17:24:49.894Z,16.80
2022-09-10T17:26:11.966Z,16.70
2022-09-10T17:27:34.925Z,16.70
2022-09-10T17:28:58.436Z,16.70
2022-09-10T17:30:21.642Z,16.70
2022-09-10T17:31:46.567Z,16.70
2022-09-10T17:33:08.648Z,16.70
2022-09-10T17:34:30.703Z,16.70
2022-09-10T17:36:01.486Z,16.60
2022-09-10T17:37:24.422Z,16.60
2022-09-10T17:38:47.350Z,16.60
2022-09-10T17:40:09.820Z,16.60
2022-09-10T17:41:31.906Z,16.60
2022-09-10T17:42:55.012Z,16.60
2022-09-10T17:44:18.039Z,16.60
2022-09-10T17:45:40.556Z,16.60
2022-09-10T17:47:02.545Z,16.60
2022-09-10T17:48:28.096Z,16.60
2022-09-10T17:49:51.911Z,16.60
2022-09-10T17:51:16.675Z,16.60
2022-09-10T17:52:40.582Z,16.60
2022-09-10T17:54:03.287Z,16.60
2022-09-10T17:55:25.511Z,16.50
2022-09-10T17:56:47.506Z,16.50
2022-09-10T17:58:12.217Z,16.50
2022-09-10T17:59:35.151Z,16.50
2022-09-10T18:00:59.528Z,16.50
2022-09-10T18:02:21.567Z,16.50
2022-09-10T18:03:43.612Z,16.50
2022-09-10T18:05:05.932Z,16.50
2022-09-10T18:06:29.233Z,16.50
2022-09-10T18:07:51.371Z,16.50
2022-09-10T18:09:15.096Z,16.60
2022-09-10T18:10:38.027Z,16.60
2022-09-10T18:12:02.099Z,16.60
2022-09-10T18:13:24.238Z,16.60
2022-09-10T18:14:46.322Z,16.60
2022-09-10T18:16:13.307Z,16.60
2022-09-10T18:17:35.427Z,16.60
2022-09-10T18:19:00.006Z,16.60
2022-09-10T18:20:25.278Z,16.60
2022-09-10T18:21:48.494Z,16.60
2022-09-10T18:23:10.501Z,16.60
2022-09-10T18:24:32.531Z,16.60
2022-09-10T18:25:55.499Z,16.70
2022-09-10T18:27:17.535Z,16.70
2022-09-10T18:28:39.562Z,16.70
2022-09-10T18:30:02.090Z,16.70
2022-09-10T18:31:26.255Z,16.70
2022-09-10T18:32:48.471Z,16.70
2022-09-10T18:34:13.675Z,16.70
2022-09-10T18:35:36.313Z,16.70
2022-09-10T18:37:00.498Z,16.70
2022-09-10T18:38:26.079Z,16.70
2022-09-10T18:39:48.091Z,16.70
2022-09-10T18:41:20.128Z,16.70
2022-09-10T18:42:46.117Z,16.70
2022-09-10T18:44:18.871Z,16.70
2022-09-10T18:45:40.854Z,16.80